createdAt,value
2018-08-24T00:00:02.146Z,18.60
2018-08-24T00:02:30.932Z,18.80
2018-08-24T00:04:59.722Z,18.70
2018-08-24T00:07:28.467Z,18.30
2018-08-24T00:09:57.079Z,18.60
2018-08-24T00:12:25.786Z,18.70
2018-08-24T00:14:54.593Z,19.00
2018-08-24T00:17:29.158Z,18.10
2018-08-24T00:19:58.321Z,18.60
2018-08-24T00:22:27.041Z,18.80
2018-08-24T00:24:55.601Z,18.50
2018-08-24T00:27:24.563Z,18.30
2018-08-24T00:29:53.560Z,18.60
2018-08-24T00:32:22.442Z,18.50
2018-08-24T00:34:50.948Z,17.90
2018-08-24T00:37:20.132Z,18.10
2018-08-24T00:39:49.051Z,18.00
2018-08-24T00:42:17.680Z,18.40
2018-08-24T00:44:46.314Z,18.10
2018-08-24T00:47:15.216Z,18.30
2018-08-24T00:49:43.813Z,18.00
2018-08-24T00:52:12.473Z,18.10
2018-08-24T00:54:41.188Z,18.30
2018-08-24T00:57:09.828Z,18.10
2018-08-24T00:59:38.532Z,17.40
2018-08-24T01:02:07.052Z,17.40
2018-08-24T01:04:36.437Z,17.20
2018-08-24T01:07:10.092Z,17.50
2018-08-24T01:09:39.642Z,17.80
2018-08-24T01:12:11.411Z,18.00
2018-08-24T01:14:41.971Z,18.10
2018-08-24T01:17:16.407Z,17.50
2018-08-24T01:19:45.341Z,18.00
2018-08-24T01:22:14.409Z,18.00
2018-08-24T01:24:43.043Z,17.60
2018-08-24T01:27:11.717Z,17.90
2018-08-24T01:29:41.774Z,18.10
2018-08-24T01:32:10.104Z,17.70
2018-08-24T01:34:38.994Z,17.80
2018-08-24T01:37:07.698Z,17.60
2018-08-24T01:39:37.955Z,17.70
2018-08-24T01:42:07.432Z,17.50
2018-08-24T01:44:37.841Z,17.60
2018-08-24T01:47:08.913Z,17.50
2018-08-24T01:49:37.713Z,17.20
2018-08-24T01:52:06.816Z,17.00
2018-08-24T01:54:35.783Z,16.80
2018-08-24T01:57:05.561Z,17.40
2018-08-24T01:59:34.414Z,17.80
2018-08-24T02:02:03.358Z,17.60
2018-08-24T02:04:33.125Z,17.50
2018-08-24T02:07:01.843Z,17.70
2018-08-24T02:09:30.956Z,17.90
2018-08-24T02:12:00.474Z,17.90
2018-08-24T02:14:35.029Z,17.50
2018-08-24T02:17:03.704Z,17.40
2018-08-24T02:19:38.183Z,17.70
2018-08-24T02:22:12.332Z,17.70
2018-08-24T02:24:40.953Z,17.90
2018-08-24T02:27:09.683Z,17.90
2018-08-24T02:29:39.007Z,17.50
2018-08-24T02:32:07.941Z,17.30
2018-08-24T02:34:36.507Z,17.80
2018-08-24T02:37:05.229Z,17.40
2018-08-24T02:39:33.880Z,17.90
2018-08-24T02:42:02.892Z,17.90
2018-08-24T02:44:31.460Z,17.90
2018-08-24T02:47:00.040Z,17.90
2018-08-24T02:49:28.905Z,18.10
2018-08-24T02:51:57.502Z,17.60
2018-08-24T02:54:26.219Z,17.50
2018-08-24T02:56:55.585Z,17.80
2018-08-24T02:59:23.690Z,18.00
2018-08-24T03:01:52.246Z,17.80
2018-08-24T03:04:20.824Z,17.50
2018-08-24T03:06:49.418Z,17.90
2018-08-24T03:09:18.060Z,18.10
2018-08-24T03:11:46.648Z,18.00
2018-08-24T03:14:15.400Z,18.20
2018-08-24T03:16:49.902Z,18.10
2018-08-24T03:19:18.506Z,18.10
2018-08-24T03:21:47.861Z,18.20
2018-08-24T03:24:17.171Z,18.30
2018-08-24T03:26:45.893Z,18.20
2018-08-24T03:29:15.056Z,18.30
2018-08-24T03:31:44.425Z,18.10
2018-08-24T03:34:14.663Z,18.30
2018-08-24T03:36:44.205Z,18.00
2018-08-24T03:39:13.179Z,17.40
2018-08-24T03:41:42.296Z,17.40
2018-08-24T03:44:11.223Z,17.30
2018-08-24T03:46:42.360Z,17.50
2018-08-24T03:49:12.192Z,17.60
2018-08-24T03:51:41.692Z,18.10
2018-08-24T03:54:13.334Z,17.70
2018-08-24T03:56:43.267Z,17.80
2018-08-24T03:59:12.173Z,17.80
2018-08-24T04:01:41.060Z,17.90
2018-08-24T04:04:10.456Z,17.60
2018-08-24T04:06:39.660Z,17.80
2018-08-24T04:09:08.504Z,17.00
2018-08-24T04:11:37.553Z,17.90
2018-08-24T04:14:06.308Z,18.00
2018-08-24T04:16:40.785Z,18.20
2018-08-24T04:19:30.908Z,17.80
2018-08-24T04:21:59.846Z,17.80
2018-08-24T04:24:29.028Z,17.90
2018-08-24T04:26:58.658Z,17.70
2018-08-24T04:29:29.036Z,17.60
2018-08-24T04:32:02.246Z,17.60
2018-08-24T04:34:32.349Z,17.60
2018-08-24T04:37:02.402Z,17.60
2018-08-24T04:39:34.318Z,17.30
2018-08-24T04:42:04.645Z,17.40
2018-08-24T04:44:35.057Z,17.30
2018-08-24T04:47:06.624Z,17.50
2018-08-24T04:49:36.498Z,17.50
2018-08-24T04:52:05.342Z,17.60
2018-08-24T04:57:11.491Z,16.80
2018-08-24T04:59:43.897Z,17.10
2018-08-24T05:02:15.480Z,17.40
2018-08-24T05:04:47.555Z,17.40
2018-08-24T05:07:21.803Z,17.30
2018-08-24T05:09:54.071Z,17.30
2018-08-24T05:12:24.422Z,17.10
2018-08-24T05:14:54.645Z,17.60
2018-08-24T05:17:27.181Z,17.20
2018-08-24T05:20:01.609Z,17.50
2018-08-24T05:25:19.595Z,17.50
2018-08-24T05:27:49.788Z,16.60
2018-08-24T05:30:18.734Z,17.00
2018-08-24T05:32:54.909Z,17.10
2018-08-24T05:35:23.523Z,17.40
2018-08-24T05:37:55.299Z,17.50
2018-08-24T05:40:27.977Z,17.30
2018-08-24T05:42:58.751Z,16.70
2018-08-24T05:45:28.579Z,17.10
2018-08-24T05:47:58.318Z,16.90
2018-08-24T05:50:27.412Z,16.70
2018-08-24T05:52:56.462Z,17.00
2018-08-24T05:55:27.511Z,16.90
2018-08-24T05:57:57.332Z,16.50
2018-08-24T06:00:32.282Z,16.90
2018-08-24T06:03:03.025Z,16.70
2018-08-24T06:05:34.256Z,16.70
2018-08-24T06:08:04.938Z,16.50
2018-08-24T06:10:35.484Z,16.80
2018-08-24T06:13:04.836Z,16.40
2018-08-24T06:15:36.655Z,16.50
2018-08-24T06:18:07.335Z,16.50
2018-08-24T06:20:36.821Z,16.60
2018-08-24T06:23:05.838Z,16.30
2018-08-24T06:25:35.412Z,16.90
2018-08-24T06:28:08.511Z,16.90
2018-08-24T06:30:37.400Z,17.00
2018-08-24T06:33:10.934Z,16.90
2018-08-24T06:35:41.455Z,17.00
2018-08-24T06:38:11.828Z,16.40
2018-08-24T06:40:45.024Z,16.60
2018-08-24T06:43:16.780Z,16.70
2018-08-24T06:45:45.755Z,16.40
2018-08-24T06:48:19.601Z,17.00
2018-08-24T06:50:52.051Z,16.60
2018-08-24T06:53:23.915Z,17.00
2018-08-24T06:58:30.816Z,16.70
2018-08-24T07:01:02.574Z,17.40
2018-08-24T07:03:33.395Z,16.90
2018-08-24T07:06:04.903Z,16.90
2018-08-24T07:08:40.014Z,17.00
2018-08-24T07:11:09.939Z,17.20
2018-08-24T07:13:42.227Z,17.80
2018-08-24T07:16:15.168Z,18.20
2018-08-24T07:18:47.064Z,18.30
2018-08-24T07:21:21.551Z,18.00
2018-08-24T07:23:51.187Z,18.00
2018-08-24T07:26:23.547Z,18.00
2018-08-24T07:28:53.553Z,18.10
2018-08-24T07:31:22.361Z,18.20
2018-08-24T07:33:51.241Z,17.20
2018-08-24T07:36:20.767Z,17.90
2018-08-24T07:38:50.690Z,18.00
2018-08-24T07:41:21.618Z,17.90
2018-08-24T07:43:51.870Z,18.10
2018-08-24T07:46:25.217Z,18.20
2018-08-24T07:48:56.468Z,18.40
2018-08-24T07:51:25.469Z,18.00
2018-08-24T07:53:56.918Z,18.00
2018-08-24T07:56:31.213Z,17.40
2018-08-24T08:00:13.868Z,17.60
2018-08-24T08:02:45.538Z,18.20
2018-08-24T08:05:18.558Z,17.60
2018-08-24T08:10:30.720Z,17.90
2018-08-24T08:13:01.026Z,18.40
2018-08-24T08:15:30.970Z,18.40
2018-08-24T08:18:00.382Z,18.60
2018-08-24T08:20:29.560Z,18.00
2018-08-24T08:22:59.415Z,18.60
2018-08-24T08:25:28.719Z,18.70
2018-08-24T08:27:57.885Z,19.60
2018-08-24T08:30:27.483Z,19.90
2018-08-24T08:32:57.560Z,20.30
2018-08-24T08:35:27.984Z,20.90
2018-08-24T08:37:57.224Z,20.00
2018-08-24T08:40:28.244Z,19.80
2018-08-24T08:42:59.427Z,19.30
2018-08-24T08:45:29.431Z,20.70
2018-08-24T08:47:59.441Z,20.50
2018-08-24T08:50:30.061Z,20.70
2018-08-24T08:52:59.477Z,21.60
2018-08-24T08:55:29.690Z,21.80
2018-08-24T08:58:02.000Z,21.60
2018-08-24T09:00:44.141Z,21.60
2018-08-24T09:03:15.125Z,20.90
2018-08-24T09:05:45.759Z,19.40
2018-08-24T09:08:15.915Z,20.20
2018-08-24T09:10:45.657Z,19.90
2018-08-24T09:13:16.023Z,20.10
2018-08-24T09:15:46.831Z,20.40
2018-08-24T09:18:24.790Z,21.10
2018-08-24T09:20:59.912Z,21.40
2018-08-24T09:23:34.863Z,21.30
2018-08-24T09:26:14.065Z,20.50
2018-08-24T09:28:44.453Z,21.20
2018-08-24T09:31:19.762Z,21.00
2018-08-24T09:33:48.965Z,20.90
2018-08-24T09:36:21.188Z,20.60
2018-08-24T09:38:52.734Z,20.10
2018-08-24T09:41:24.358Z,20.10
2018-08-24T09:43:58.762Z,19.80
2018-08-24T09:46:35.385Z,20.00
2018-08-24T09:49:13.065Z,20.10
2018-08-24T09:51:45.315Z,20.20
2018-08-24T09:54:15.271Z,20.10
2018-08-24T09:56:45.059Z,20.80
2018-08-24T09:59:14.417Z,20.90
2018-08-24T10:01:48.715Z,21.70
2018-08-24T10:04:24.594Z,21.30
2018-08-24T10:06:59.457Z,21.20
2018-08-24T10:09:32.261Z,21.00
2018-08-24T10:12:03.489Z,20.70
2018-08-24T10:14:32.609Z,20.00
2018-08-24T10:17:03.427Z,20.50
2018-08-24T10:19:33.310Z,19.80
2018-08-24T10:22:03.397Z,20.00
2018-08-24T10:24:33.426Z,20.40
2018-08-24T10:27:03.221Z,20.00
2018-08-24T10:29:37.705Z,19.80
2018-08-24T10:32:08.353Z,20.40
2018-08-24T10:34:38.648Z,19.30
2018-08-24T10:37:09.645Z,19.90
2018-08-24T10:39:43.030Z,20.00
2018-08-24T10:42:13.742Z,20.30
2018-08-24T10:44:55.707Z,20.40
2018-08-24T10:47:25.790Z,20.80
2018-08-24T10:49:57.940Z,21.40
2018-08-24T10:52:27.106Z,21.60
2018-08-24T10:54:56.833Z,22.00
2018-08-24T10:57:30.849Z,21.60
2018-08-24T11:00:03.107Z,21.70
2018-08-24T11:05:14.288Z,21.80
2018-08-24T11:08:07.354Z,21.40
2018-08-24T11:10:37.900Z,21.20
2018-08-24T11:13:10.837Z,21.20
2018-08-24T11:15:45.771Z,21.10
2018-08-24T11:18:17.516Z,21.50
2018-08-24T11:20:47.431Z,21.30
2018-08-24T11:23:17.308Z,21.80
2018-08-24T11:25:48.024Z,21.70
2018-08-24T11:28:17.835Z,21.40
2018-08-24T11:39:51.829Z,22.20
2018-08-24T11:42:20.708Z,21.70
2018-08-24T11:44:50.072Z,22.20
2018-08-24T11:50:10.190Z,21.70
2018-08-24T11:52:43.596Z,22.20
2018-08-24T11:55:13.299Z,22.40
2018-08-24T11:57:45.763Z,22.00
2018-08-24T12:00:18.474Z,21.70
2018-08-24T12:02:47.916Z,22.10
2018-08-24T12:05:16.999Z,21.80
2018-08-24T12:07:48.486Z,22.20
2018-08-24T12:10:19.493Z,22.30
2018-08-24T12:12:47.833Z,23.00
2018-08-24T12:15:15.919Z,23.30
2018-08-24T12:17:44.563Z,22.50
2018-08-24T12:20:13.446Z,22.50
2018-08-24T12:22:41.796Z,22.50
2018-08-24T12:25:10.136Z,22.30
2018-08-24T12:27:38.555Z,21.90
2018-08-24T12:30:07.750Z,21.90
2018-08-24T12:32:36.265Z,21.60
2018-08-24T12:35:04.972Z,21.90
2018-08-24T12:37:50.243Z,21.90
2018-08-24T12:40:18.928Z,22.80
2018-08-24T12:42:47.610Z,22.60
2018-08-24T12:45:16.206Z,22.10
2018-08-24T12:47:45.400Z,22.00
2018-08-24T12:50:14.343Z,22.70
2018-08-24T12:52:43.207Z,22.70
2018-08-24T12:55:11.880Z,22.40
2018-08-24T12:57:40.912Z,22.20
2018-08-24T13:00:09.577Z,21.90
2018-08-24T13:02:38.455Z,21.90
2018-08-24T13:05:06.987Z,22.60
2018-08-24T13:07:35.670Z,23.00
2018-08-24T13:10:04.411Z,22.50
2018-08-24T13:12:32.754Z,22.70
2018-08-24T13:15:01.332Z,22.90
2018-08-24T13:17:30.320Z,22.70
2018-08-24T13:19:59.271Z,22.00
2018-08-24T13:22:27.629Z,22.70
2018-08-24T13:24:56.285Z,22.20
2018-08-24T13:27:24.781Z,22.10
2018-08-24T13:29:53.158Z,22.90
2018-08-24T13:32:21.626Z,22.00
2018-08-24T13:34:50.656Z,21.70
2018-08-24T13:37:19.766Z,21.60
2018-08-24T13:39:48.438Z,22.20
2018-08-24T13:42:17.223Z,21.60
2018-08-24T13:44:46.853Z,22.00
2018-08-24T13:47:16.737Z,22.10
2018-08-24T13:49:45.214Z,22.40
2018-08-24T13:52:15.153Z,22.40
2018-08-24T13:54:44.091Z,22.40
2018-08-24T13:57:13.125Z,22.30
2018-08-24T13:59:41.973Z,21.50
2018-08-24T14:02:11.206Z,21.90
2018-08-24T14:04:40.177Z,21.70
2018-08-24T14:07:09.028Z,21.80
2018-08-24T14:09:37.652Z,21.80
2018-08-24T14:12:09.076Z,21.90
2018-08-24T14:14:38.074Z,21.20
2018-08-24T14:17:07.473Z,21.00
2018-08-24T14:19:36.133Z,21.60
2018-08-24T14:22:04.745Z,21.50
2018-08-24T14:24:33.911Z,21.50
2018-08-24T14:27:02.439Z,21.50
2018-08-24T14:29:31.122Z,21.50
2018-08-24T14:32:00.149Z,21.30
2018-08-24T14:34:29.991Z,20.60
2018-08-24T14:36:58.692Z,21.20
2018-08-24T14:39:27.381Z,20.90
2018-08-24T14:41:56.114Z,21.40
2018-08-24T14:46:58.748Z,21.20
2018-08-24T14:49:27.622Z,21.00
2018-08-24T14:51:56.716Z,21.30
2018-08-24T14:54:26.103Z,21.50
2018-08-24T14:56:55.009Z,21.20
2018-08-24T14:59:25.093Z,21.70
2018-08-24T15:01:56.501Z,21.50
2018-08-24T15:04:26.662Z,21.30
2018-08-24T15:06:55.941Z,21.60
2018-08-24T15:09:25.702Z,21.70
2018-08-24T15:11:54.530Z,21.20
2018-08-24T15:14:24.640Z,21.20
2018-08-24T15:16:53.700Z,21.50
2018-08-24T15:19:22.146Z,21.10
2018-08-24T15:21:51.780Z,21.40
2018-08-24T15:24:20.928Z,20.90
2018-08-24T15:26:50.094Z,21.30
2018-08-24T15:29:18.677Z,21.00
2018-08-24T15:31:48.241Z,21.10
2018-08-24T15:34:17.208Z,21.40
2018-08-24T15:36:46.766Z,21.40
2018-08-24T15:39:16.715Z,21.10
2018-08-24T15:41:46.303Z,21.40
2018-08-24T15:44:15.381Z,20.60
2018-08-24T15:46:44.350Z,20.90
2018-08-24T15:49:13.256Z,20.90
2018-08-24T15:51:43.002Z,20.60
2018-08-24T15:54:13.038Z,20.90
2018-08-24T15:56:43.534Z,20.70
2018-08-24T15:59:13.048Z,20.80
2018-08-24T16:01:43.635Z,19.80
2018-08-24T16:04:13.278Z,20.00
2018-08-24T16:06:42.457Z,20.40
2018-08-24T16:09:13.349Z,19.60
2018-08-24T16:11:43.266Z,19.70
2018-08-24T16:14:12.410Z,19.50
2018-08-24T16:16:41.034Z,19.50
2018-08-24T16:19:10.027Z,20.20
2018-08-24T16:21:40.003Z,19.90
2018-08-24T16:24:08.828Z,19.10
2018-08-24T16:26:37.971Z,19.10
2018-08-24T16:29:06.738Z,19.40
2018-08-24T16:34:08.158Z,19.20
2018-08-24T16:36:37.053Z,18.80
2018-08-24T16:39:08.388Z,19.00
2018-08-24T16:41:37.219Z,18.60
2018-08-24T16:44:06.166Z,18.80
2018-08-24T16:46:35.486Z,19.00
2018-08-24T16:49:04.534Z,18.60
2018-08-24T16:51:34.520Z,18.80
2018-08-24T16:54:04.596Z,18.60
2018-08-24T16:56:33.493Z,18.30
2018-08-24T16:59:02.183Z,18.70
2018-08-24T17:01:31.004Z,19.10
2018-08-24T17:03:59.990Z,19.30
2018-08-24T17:06:29.076Z,19.20
2018-08-24T17:08:57.591Z,19.10
2018-08-24T17:11:25.976Z,19.30
2018-08-24T17:13:54.577Z,19.20
2018-08-24T17:16:23.316Z,19.40
2018-08-24T17:18:52.136Z,19.30
2018-08-24T17:21:20.984Z,19.20
2018-08-24T17:23:49.827Z,19.00
2018-08-24T17:26:18.296Z,19.00
2018-08-24T17:28:47.705Z,18.90
2018-08-24T17:31:16.819Z,18.70
2018-08-24T17:33:45.913Z,18.60
2018-08-24T17:36:14.909Z,18.60
2018-08-24T17:38:44.195Z,19.10
2018-08-24T17:41:12.998Z,18.70
2018-08-24T17:43:41.499Z,19.20
2018-08-24T17:46:10.227Z,19.40
2018-08-24T17:48:38.764Z,19.10
2018-08-24T17:51:07.922Z,19.30
2018-08-24T17:53:37.075Z,19.30
2018-08-24T17:56:05.681Z,19.20
2018-08-24T17:58:37.592Z,20.00
2018-08-24T18:01:06.272Z,19.20
2018-08-24T18:03:36.333Z,19.30
2018-08-24T18:06:05.661Z,19.20
2018-08-24T18:08:34.309Z,19.10
2018-08-24T18:11:03.102Z,19.60
2018-08-24T18:13:32.135Z,19.40
2018-08-24T18:16:00.743Z,19.10
2018-08-24T18:18:29.688Z,19.30
2018-08-24T18:20:58.199Z,18.40
2018-08-24T18:23:27.165Z,18.80
2018-08-24T18:25:55.871Z,18.50
2018-08-24T18:28:24.583Z,18.50
2018-08-24T18:30:53.345Z,18.70
2018-08-24T18:33:22.890Z,18.30
2018-08-24T18:35:52.450Z,18.20
2018-08-24T18:38:21.644Z,18.10
2018-08-24T18:40:50.278Z,18.10
2018-08-24T18:43:19.148Z,18.10
2018-08-24T18:45:48.168Z,18.10
2018-08-24T18:48:17.188Z,18.30
2018-08-24T18:50:45.932Z,18.10
2018-08-24T18:53:14.997Z,18.10
2018-08-24T18:55:43.467Z,18.10
2018-08-24T18:58:11.939Z,17.90
2018-08-24T19:00:40.776Z,17.20
2018-08-24T19:03:09.512Z,18.10
2018-08-24T19:05:38.096Z,18.20
2018-08-24T19:08:10.508Z,18.00
2018-08-24T19:10:45.019Z,17.50
2018-08-24T19:13:15.315Z,18.00
2018-08-24T19:15:45.407Z,17.20
2018-08-24T19:18:19.555Z,17.10
2018-08-24T19:20:53.956Z,17.80
2018-08-24T19:23:22.668Z,18.00
2018-08-24T19:25:51.252Z,18.00
2018-08-24T19:28:25.437Z,18.00
2018-08-24T19:30:54.060Z,17.90
2018-08-24T19:33:22.724Z,18.10
2018-08-24T19:35:51.140Z,17.50
2018-08-24T19:38:19.679Z,18.00
2018-08-24T19:40:53.832Z,18.00
2018-08-24T19:43:22.736Z,17.90
2018-08-24T19:45:51.233Z,17.50
2018-08-24T19:48:25.659Z,17.40
2018-08-24T19:50:54.279Z,17.60
2018-08-24T19:53:23.120Z,17.30
2018-08-24T19:55:51.640Z,17.20
2018-08-24T19:58:25.894Z,17.30
2018-08-24T20:00:54.311Z,17.70
2018-08-24T20:03:22.852Z,17.60
2018-08-24T20:05:57.120Z,17.00
2018-08-24T20:08:31.438Z,17.20
2018-08-24T20:11:00.120Z,17.00
2018-08-24T20:13:28.716Z,17.60
2018-08-24T20:16:03.047Z,17.40
2018-08-24T20:18:31.936Z,17.60
2018-08-24T20:21:00.680Z,17.20
2018-08-24T20:23:29.938Z,17.00
2018-08-24T20:25:58.667Z,17.50
2018-08-24T20:28:27.409Z,17.10
2018-08-24T20:30:56.280Z,17.20
2018-08-24T20:33:24.668Z,17.50
2018-08-24T20:35:53.359Z,17.10
2018-08-24T20:38:22.341Z,16.80
2018-08-24T20:40:51.035Z,17.20
2018-08-24T20:43:19.624Z,17.30
2018-08-24T20:45:48.821Z,17.50
2018-08-24T20:48:17.640Z,17.40
2018-08-24T20:50:46.202Z,16.80
2018-08-24T20:53:14.960Z,17.10
2018-08-24T20:55:44.615Z,17.00
2018-08-24T20:58:14.134Z,16.60
2018-08-24T21:00:43.515Z,16.80
2018-08-24T21:03:13.315Z,16.60
2018-08-24T21:05:41.911Z,16.60
2018-08-24T21:08:11.153Z,17.00
2018-08-24T21:10:41.425Z,16.60
2018-08-24T21:13:09.989Z,16.10
2018-08-24T21:15:39.411Z,16.60
2018-08-24T21:18:09.201Z,16.00
2018-08-24T21:20:38.087Z,16.10
2018-08-24T21:23:06.888Z,16.60
2018-08-24T21:25:36.566Z,16.70
2018-08-24T21:28:05.277Z,16.70
2018-08-24T21:30:35.283Z,16.70
2018-08-24T21:33:04.000Z,16.30
2018-08-24T21:35:32.666Z,16.00
2018-08-24T21:38:01.224Z,16.60
2018-08-24T21:40:30.044Z,16.60
2018-08-24T21:42:58.595Z,16.60
2018-08-24T21:45:27.087Z,16.60
2018-08-24T21:47:55.495Z,16.70
2018-08-24T21:50:24.266Z,16.40
2018-08-24T21:52:53.098Z,16.20
2018-08-24T21:55:21.713Z,16.50
2018-08-24T21:57:50.279Z,16.40
2018-08-24T22:00:19.090Z,15.90
2018-08-24T22:02:47.802Z,15.90
2018-08-24T22:05:16.491Z,16.40
2018-08-24T22:07:44.971Z,16.50
2018-08-24T22:10:13.683Z,16.70
2018-08-24T22:12:42.184Z,17.00
2018-08-24T22:15:10.842Z,16.40
2018-08-24T22:17:39.339Z,16.80
2018-08-24T22:20:08.008Z,16.30
2018-08-24T22:22:36.681Z,16.50
2018-08-24T22:25:05.523Z,16.20
2018-08-24T22:27:34.055Z,16.40
2018-08-24T22:30:02.717Z,16.30
2018-08-24T22:32:31.134Z,16.20
2018-08-24T22:35:00.608Z,16.00
2018-08-24T22:37:29.416Z,15.80
2018-08-24T22:39:59.201Z,15.40
2018-08-24T22:42:27.663Z,16.00
2018-08-24T22:44:56.101Z,16.20
2018-08-24T22:47:24.939Z,16.00
2018-08-24T22:49:54.154Z,16.10
2018-08-24T22:52:23.031Z,16.40
2018-08-24T22:54:52.280Z,16.20
2018-08-24T22:57:21.086Z,16.10
2018-08-24T22:59:50.385Z,16.30
2018-08-24T23:02:19.288Z,16.70
2018-08-24T23:04:48.217Z,16.00
2018-08-24T23:07:17.560Z,16.00
2018-08-24T23:09:46.422Z,15.90
2018-08-24T23:12:15.652Z,16.20
2018-08-24T23:14:44.330Z,16.20
2018-08-24T23:17:13.989Z,16.20
2018-08-24T23:19:43.052Z,16.20
2018-08-24T23:22:12.340Z,16.30
2018-08-24T23:24:41.150Z,15.50
2018-08-24T23:27:10.719Z,15.60
2018-08-24T23:29:39.480Z,16.10
2018-08-24T23:32:08.290Z,15.80
2018-08-24T23:34:37.060Z,15.80
2018-08-24T23:37:06.421Z,15.70
2018-08-24T23:39:35.312Z,15.70
2018-08-24T23:42:04.031Z,15.70
2018-08-24T23:44:32.852Z,15.40
2018-08-24T23:47:01.845Z,14.60
2018-08-24T23:49:30.696Z,15.20
2018-08-24T23:51:59.608Z,15.10
2018-08-24T23:54:28.686Z,14.90
2018-08-24T23:56:57.904Z,15.40
2018-08-24T23:59:27.046Z,14.90
